sensor_id;sensor_type;location;lat;lon;timestamp;pressure;altitude;pressure_sealevel;temperature;humidity
30618;BME280;17384;51.214;9.202;2024-01-10T00:00:05;100106.00;;;-11.53;90.21
30618;BME280;17384;51.214;9.202;2024-01-10T00:02:31;100093.72;;;-11.51;90.16
30618;BME280;17384;51.214;9.202;2024-01-10T00:04:56;100103.38;;;-11.53;90.17
30618;BME280;17384;51.214;9.202;2024-01-10T00:07:21;100096.34;;;-11.51;90.07
30618;BME280;17384;51.214;9.202;2024-01-10T00:09:47;100086.00;;;-11.55;90.03
30618;BME280;17384;51.214;9.202;2024-01-10T00:12:12;100078.09;;;-11.54;89.98
30618;BME280;17384;51.214;9.202;2024-01-10T00:14:37;100090.97;;;-11.48;90.37
30618;BME280;17384;51.214;9.202;2024-01-10T00:17:03;100098.38;;;-11.33;90.17
30618;BME280;17384;51.214;9.202;2024-01-10T00:19:28;100096.94;;;-11.43;89.61
30618;BME280;17384;51.214;9.202;2024-01-10T00:21:54;100082.13;;;-11.44;89.59
30618;BME280;17384;51.214;9.202;2024-01-10T00:24:19;100065.88;;;-11.53;89.73
30618;BME280;17384;51.214;9.202;2024-01-10T00:26:44;100069.94;;;-11.73;89.68
30618;BME280;17384;51.214;9.202;2024-01-10T00:29:09;100068.84;;;-11.93;89.94
30618;BME280;17384;51.214;9.202;2024-01-10T00:31:35;100074.31;;;-12.03;90.07
30618;BME280;17384;51.214;9.202;2024-01-10T00:34:00;100067.25;;;-11.99;90.24
30618;BME280;17384;51.214;9.202;2024-01-10T00:36:25;100054.81;;;-11.91;90.54
30618;BME280;17384;51.214;9.202;2024-01-10T00:38:51;100064.22;;;-11.84;90.52
30618;BME280;17384;51.214;9.202;2024-01-10T00:41:16;100070.97;;;-11.77;90.38
30618;BME280;17384;51.214;9.202;2024-01-10T00:43:41;100068.59;;;-11.84;90.56
30618;BME280;17384;51.214;9.202;2024-01-10T00:46:07;100050.25;;;-11.84;90.42
30618;BME280;17384;51.214;9.202;2024-01-10T00:48:32;100065.16;;;-11.86;90.52
30618;BME280;17384;51.214;9.202;2024-01-10T00:50:58;100063.44;;;-11.87;90.45
30618;BME280;17384;51.214;9.202;2024-01-10T00:53:24;100058.06;;;-11.83;90.60
30618;BME280;17384;51.214;9.202;2024-01-10T00:55:49;100061.59;;;-11.84;90.34
30618;BME280;17384;51.214;9.202;2024-01-10T00:58:14;100072.00;;;-11.82;90.27
30618;BME280;17384;51.214;9.202;2024-01-10T01:00:40;100061.53;;;-11.82;90.26
30618;BME280;17384;51.214;9.202;2024-01-10T01:03:05;100053.75;;;-11.84;90.41
30618;BME280;17384;51.214;9.202;2024-01-10T01:05:31;100058.25;;;-11.89;90.28
30618;BME280;17384;51.214;9.202;2024-01-10T01:07:56;100057.25;;;-11.85;90.11
30618;BME280;17384;51.214;9.202;2024-01-10T01:10:21;100040.78;;;-11.88;90.32
30618;BME280;17384;51.214;9.202;2024-01-10T01:12:47;100060.00;;;-11.89;90.20
30618;BME280;17384;51.214;9.202;2024-01-10T01:15:12;100052.19;;;-11.91;90.05
30618;BME280;17384;51.214;9.202;2024-01-10T01:17:38;100053.13;;;-11.93;90.20
30618;BME280;17384;51.214;9.202;2024-01-10T01:20:03;100042.75;;;-11.97;90.02
30618;BME280;17384;51.214;9.202;2024-01-10T01:22:30;100049.84;;;-12.00;90.32
30618;BME280;17384;51.214;9.202;2024-01-10T01:24:56;100047.44;;;-12.06;90.49
30618;BME280;17384;51.214;9.202;2024-01-10T01:27:22;100061.53;;;-12.12;90.46
30618;BME280;17384;51.214;9.202;2024-01-10T01:29:47;100052.81;;;-12.12;90.72
30618;BME280;17384;51.214;9.202;2024-01-10T01:32:13;100051.97;;;-12.13;90.99
30618;BME280;17384;51.214;9.202;2024-01-10T01:34:38;100046.66;;;-12.10;91.18
30618;BME280;17384;51.214;9.202;2024-01-10T01:37:03;100045.03;;;-12.14;91.45
30618;BME280;17384;51.214;9.202;2024-01-10T01:39:29;100036.84;;;-12.03;91.43
30618;BME280;17384;51.214;9.202;2024-01-10T01:41:54;100037.91;;;-12.09;91.53
30618;BME280;17384;51.214;9.202;2024-01-10T01:44:19;100020.34;;;-12.04;91.67
30618;BME280;17384;51.214;9.202;2024-01-10T01:46:45;100022.31;;;-12.12;92.06
30618;BME280;17384;51.214;9.202;2024-01-10T01:49:11;100032.00;;;-12.15;92.36
30618;BME280;17384;51.214;9.202;2024-01-10T01:51:37;100031.13;;;-12.16;92.53
30618;BME280;17384;51.214;9.202;2024-01-10T01:54:03;100018.69;;;-12.08;92.64
30618;BME280;17384;51.214;9.202;2024-01-10T01:56:29;100021.88;;;-11.98;92.73
30618;BME280;17384;51.214;9.202;2024-01-10T01:58:55;100027.25;;;-12.03;92.47
30618;BME280;17384;51.214;9.202;2024-01-10T02:01:21;100024.28;;;-11.90;92.20
30618;BME280;17384;51.214;9.202;2024-01-10T02:03:47;100025.19;;;-11.91;92.23
30618;BME280;17384;51.214;9.202;2024-01-10T02:06:12;100015.53;;;-11.89;91.67
30618;BME280;17384;51.214;9.202;2024-01-10T02:08:37;100019.94;;;-11.91;91.66
30618;BME280;17384;51.214;9.202;2024-01-10T02:11:03;100009.63;;;-11.96;91.39
30618;BME280;17384;51.214;9.202;2024-01-10T02:13:28;100018.31;;;-11.95;91.43
30618;BME280;17384;51.214;9.202;2024-01-10T02:15:55;100001.69;;;-11.93;91.34
30618;BME280;17384;51.214;9.202;2024-01-10T02:18:20;100010.53;;;-11.97;91.09
30618;BME280;17384;51.214;9.202;2024-01-10T02:20:45;99999.97;;;-11.94;91.00
30618;BME280;17384;51.214;9.202;2024-01-10T02:23:11;99995.00;;;-12.03;90.90
30618;BME280;17384;51.214;9.202;2024-01-10T02:25:36;100004.44;;;-11.98;90.71
30618;BME280;17384;51.214;9.202;2024-01-10T02:28:02;100005.09;;;-11.91;90.73
30618;BME280;17384;51.214;9.202;2024-01-10T02:30:27;99984.09;;;-11.88;90.65
30618;BME280;17384;51.214;9.202;2024-01-10T02:32:52;99985.56;;;-11.79;90.37
30618;BME280;17384;51.214;9.202;2024-01-10T02:35:18;99984.53;;;-12.03;89.99
30618;BME280;17384;51.214;9.202;2024-01-10T02:37:43;99982.25;;;-12.14;90.01
30618;BME280;17384;51.214;9.202;2024-01-10T02:40:09;99990.09;;;-12.14;90.22
30618;BME280;17384;51.214;9.202;2024-01-10T02:42:35;99995.00;;;-12.03;90.38
30618;BME280;17384;51.214;9.202;2024-01-10T02:45:00;99982.84;;;-12.04;90.35
30618;BME280;17384;51.214;9.202;2024-01-10T02:47:25;99981.91;;;-12.03;90.40
30618;BME280;17384;51.214;9.202;2024-01-10T02:49:51;99988.22;;;-12.09;90.62
30618;BME280;17384;51.214;9.202;2024-01-10T02:52:16;99994.66;;;-11.91;90.53
30618;BME280;17384;51.214;9.202;2024-01-10T02:54:41;99990.34;;;-11.93;90.24
30618;BME280;17384;51.214;9.202;2024-01-10T02:57:07;99974.88;;;-11.73;90.25
30618;BME280;17384;51.214;9.202;2024-01-10T02:59:32;99990.19;;;-11.87;90.01
30618;BME280;17384;51.214;9.202;2024-01-10T03:01:57;99974.63;;;-12.21;89.84
30618;BME280;17384;51.214;9.202;2024-01-10T03:04:23;99968.50;;;-12.20;90.04
30618;BME280;17384;51.214;9.202;2024-01-10T03:06:48;99974.94;;;-12.03;90.46
30618;BME280;17384;51.214;9.202;2024-01-10T03:09:13;99983.88;;;-12.10;90.16
30618;BME280;17384;51.214;9.202;2024-01-10T03:11:39;99960.47;;;-12.14;90.33
30618;BME280;17384;51.214;9.202;2024-01-10T03:14:07;99970.22;;;-12.19;90.51
30618;BME280;17384;51.214;9.202;2024-01-10T03:16:33;99979.81;;;-12.20;90.61
30618;BME280;17384;51.214;9.202;2024-01-10T03:18:58;99968.53;;;-12.22;90.91
30618;BME280;17384;51.214;9.202;2024-01-10T03:21:24;99972.22;;;-12.29;91.65
30618;BME280;17384;51.214;9.202;2024-01-10T03:23:51;99968.63;;;-12.25;91.37
30618;BME280;17384;51.214;9.202;2024-01-10T03:26:16;99975.50;;;-12.21;91.52
30618;BME280;17384;51.214;9.202;2024-01-10T03:28:42;99977.28;;;-12.23;91.37
30618;BME280;17384;51.214;9.202;2024-01-10T03:31:07;99970.31;;;-12.22;91.36
30618;BME280;17384;51.214;9.202;2024-01-10T03:33:32;99961.59;;;-12.23;91.37
30618;BME280;17384;51.214;9.202;2024-01-10T03:35:57;99957.31;;;-12.25;91.15
30618;BME280;17384;51.214;9.202;2024-01-10T03:38:23;99953.81;;;-12.24;91.17
30618;BME280;17384;51.214;9.202;2024-01-10T03:40:48;99971.16;;;-11.92;91.24
30618;BME280;17384;51.214;9.202;2024-01-10T03:43:13;99961.84;;;-12.03;90.55
30618;BME280;17384;51.214;9.202;2024-01-10T03:45:39;99955.97;;;-12.39;90.22
30618;BME280;17384;51.214;9.202;2024-01-10T03:48:04;99955.22;;;-12.42;90.63
30618;BME280;17384;51.214;9.202;2024-01-10T03:50:30;99943.91;;;-12.43;91.02
30618;BME280;17384;51.214;9.202;2024-01-10T03:52:56;99948.19;;;-12.40;91.05
30618;BME280;17384;51.214;9.202;2024-01-10T03:55:21;99958.47;;;-12.34;91.31
30618;BME280;17384;51.214;9.202;2024-01-10T03:57:46;99938.97;;;-12.24;91.33
30618;BME280;17384;51.214;9.202;2024-01-10T04:00:12;99940.00;;;-12.29;91.60
30618;BME280;17384;51.214;9.202;2024-01-10T04:02:37;99945.91;;;-12.52;91.33
30618;BME280;17384;51.214;9.202;2024-01-10T04:05:06;99938.19;;;-12.57;91.62
30618;BME280;17384;51.214;9.202;2024-01-10T04:07:32;99952.00;;;-12.52;92.15
30618;BME280;17384;51.214;9.202;2024-01-10T04:09:58;99954.34;;;-12.43;92.77
30618;BME280;17384;51.214;9.202;2024-01-10T04:12:23;99958.59;;;-12.39;93.17
30618;BME280;17384;51.214;9.202;2024-01-10T04:14:49;99944.66;;;-12.39;93.18
30618;BME280;17384;51.214;9.202;2024-01-10T04:17:14;99966.97;;;-12.27;93.55
30618;BME280;17384;51.214;9.202;2024-01-10T04:19:39;99956.28;;;-12.20;93.84
30618;BME280;17384;51.214;9.202;2024-01-10T04:22:04;99964.84;;;-12.15;94.15
30618;BME280;17384;51.214;9.202;2024-01-10T04:24:30;99958.63;;;-12.11;94.50
30618;BME280;17384;51.214;9.202;2024-01-10T04:26:55;99961.84;;;-12.03;94.08
30618;BME280;17384;51.214;9.202;2024-01-10T04:29:20;99956.97;;;-12.13;93.89
30618;BME280;17384;51.214;9.202;2024-01-10T04:31:46;99972.69;;;-12.15;93.98
30618;BME280;17384;51.214;9.202;2024-01-10T04:34:11;99963.28;;;-12.20;94.10
30618;BME280;17384;51.214;9.202;2024-01-10T04:36:36;99975.06;;;-12.06;94.32
30618;BME280;17384;51.214;9.202;2024-01-10T04:39:02;99946.66;;;-11.90;94.12
30618;BME280;17384;51.214;9.202;2024-01-10T04:41:27;99955.38;;;-11.89;93.54
30618;BME280;17384;51.214;9.202;2024-01-10T04:43:53;99954.38;;;-11.85;93.28
30618;BME280;17384;51.214;9.202;2024-01-10T04:46:18;99946.03;;;-11.98;93.17
30618;BME280;17384;51.214;9.202;2024-01-10T04:48:43;99944.19;;;-11.94;93.01
30618;BME280;17384;51.214;9.202;2024-01-10T04:51:09;99946.59;;;-11.88;93.19
30618;BME280;17384;51.214;9.202;2024-01-10T04:53:34;99932.63;;;-11.87;92.96
30618;BME280;17384;51.214;9.202;2024-01-10T04:55:59;99941.97;;;-11.79;92.77
30618;BME280;17384;51.214;9.202;2024-01-10T04:58:25;99920.97;;;-11.77;92.56
30618;BME280;17384;51.214;9.202;2024-01-10T05:00:50;99930.72;;;-11.82;92.65
30618;BME280;17384;51.214;9.202;2024-01-10T05:03:16;99934.25;;;-11.83;92.96
30618;BME280;17384;51.214;9.202;2024-01-10T05:05:41;99929.72;;;-11.78;92.89
30618;BME280;17384;51.214;9.202;2024-01-10T05:08:06;99917.19;;;-11.70;93.09
30618;BME280;17384;51.214;9.202;2024-01-10T05:10:32;99943.22;;;-11.66;92.73
30618;BME280;17384;51.214;9.202;2024-01-10T05:12:57;99930.19;;;-11.67;92.57
30618;BME280;17384;51.214;9.202;2024-01-10T05:15:22;99933.84;;;-11.73;92.47
30618;BME280;17384;51.214;9.202;2024-01-10T05:17:48;99930.53;;;-11.76;92.57
30618;BME280;17384;51.214;9.202;2024-01-10T05:20:13;99914.16;;;-11.83;92.67
30618;BME280;17384;51.214;9.202;2024-01-10T05:22:39;99920.88;;;-11.76;92.40
30618;BME280;17384;51.214;9.202;2024-01-10T05:25:05;99912.22;;;-11.76;92.55
30618;BME280;17384;51.214;9.202;2024-01-10T05:27:30;99914.69;;;-11.73;92.34
30618;BME280;17384;51.214;9.202;2024-01-10T05:29:56;99925.31;;;-11.76;92.23
30618;BME280;17384;51.214;9.202;2024-01-10T05:32:21;99924.06;;;-11.66;92.01
30618;BME280;17384;51.214;9.202;2024-01-10T05:34:46;99916.19;;;-11.66;91.78
30618;BME280;17384;51.214;9.202;2024-01-10T05:37:11;99916.16;;;-11.38;91.49
30618;BME280;17384;51.214;9.202;2024-01-10T05:39:37;99926.06;;;-11.48;91.10
30618;BME280;17384;51.214;9.202;2024-01-10T05:42:02;99923.75;;;-11.57;90.97
30618;BME280;17384;51.214;9.202;2024-01-10T05:44:28;99921.34;;;-11.63;90.91
30618;BME280;17384;51.214;9.202;2024-01-10T05:46:53;99929.06;;;-11.85;90.85
30618;BME280;17384;51.214;9.202;2024-01-10T05:49:18;99913.88;;;-11.75;91.03
30618;BME280;17384;51.214;9.202;2024-01-10T05:51:44;99930.28;;;-11.70;91.23
30618;BME280;17384;51.214;9.202;2024-01-10T05:54:09;99908.50;;;-11.71;91.32
30618;BME280;17384;51.214;9.202;2024-01-10T05:56:35;99908.44;;;-11.69;91.17
30618;BME280;17384;51.214;9.202;2024-01-10T05:59:00;99905.53;;;-11.60;91.19
30618;BME280;17384;51.214;9.202;2024-01-10T06:01:26;99907.91;;;-11.77;91.10
30618;BME280;17384;51.214;9.202;2024-01-10T06:03:51;99896.81;;;-11.85;91.18
30618;BME280;17384;51.214;9.202;2024-01-10T06:06:17;99915.88;;;-11.82;91.28
30618;BME280;17384;51.214;9.202;2024-01-10T06:08:42;99904.47;;;-11.79;91.60
30618;BME280;17384;51.214;9.202;2024-01-10T06:11:07;99885.25;;;-11.78;91.64
30618;BME280;17384;51.214;9.202;2024-01-10T06:13:35;99894.81;;;-11.77;91.65
30618;BME280;17384;51.214;9.202;2024-01-10T06:16:00;99888.38;;;-11.17;93.29
30618;BME280;17384;51.214;9.202;2024-01-10T06:18:27;99915.41;;;-10.67;95.29
30618;BME280;17384;51.214;9.202;2024-01-10T06:20:52;99909.63;;;-10.30;96.26
30618;BME280;17384;51.214;9.202;2024-01-10T06:23:18;99903.16;;;-9.78;97.99
30618;BME280;17384;51.214;9.202;2024-01-10T06:25:43;99906.63;;;-9.13;99.93
30618;BME280;17384;51.214;9.202;2024-01-10T06:28:08;99906.28;;;-8.85;100.00
30618;BME280;17384;51.214;9.202;2024-01-10T06:30:34;99921.19;;;-8.66;100.00
30618;BME280;17384;51.214;9.202;2024-01-10T06:33:00;99912.31;;;-8.44;100.00
30618;BME280;17384;51.214;9.202;2024-01-10T06:35:25;99919.72;;;-8.52;99.54
30618;BME280;17384;51.214;9.202;2024-01-10T06:37:51;99927.50;;;-8.49;99.43
30618;BME280;17384;51.214;9.202;2024-01-10T06:40:16;99909.94;;;-8.49;98.96
30618;BME280;17384;51.214;9.202;2024-01-10T06:42:41;99931.16;;;-8.74;98.39
30618;BME280;17384;51.214;9.202;2024-01-10T06:45:07;99909.72;;;-9.04;96.69
30618;BME280;17384;51.214;9.202;2024-01-10T06:47:33;99904.38;;;-9.43;94.78
30618;BME280;17384;51.214;9.202;2024-01-10T06:49:59;99910.75;;;-9.70;92.39
30618;BME280;17384;51.214;9.202;2024-01-10T06:52:24;99902.66;;;-10.09;90.42
30618;BME280;17384;51.214;9.202;2024-01-10T06:54:49;99906.53;;;-10.18;89.49
30618;BME280;17384;51.214;9.202;2024-01-10T06:57:15;99902.78;;;-10.34;88.73
30618;BME280;17384;51.214;9.202;2024-01-10T06:59:40;99905.84;;;-10.45;88.38
30618;BME280;17384;51.214;9.202;2024-01-10T07:02:05;99893.00;;;-10.52;88.24
30618;BME280;17384;51.214;9.202;2024-01-10T07:04:31;99902.97;;;-10.62;88.08
30618;BME280;17384;51.214;9.202;2024-01-10T07:06:57;99900.13;;;-10.56;88.30
30618;BME280;17384;51.214;9.202;2024-01-10T07:09:22;99901.63;;;-10.49;87.88
30618;BME280;17384;51.214;9.202;2024-01-10T07:11:48;99910.59;;;-10.79;87.65
30618;BME280;17384;51.214;9.202;2024-01-10T07:14:14;99899.81;;;-10.95;88.19
30618;BME280;17384;51.214;9.202;2024-01-10T07:16:39;99895.50;;;-10.96;88.75
30618;BME280;17384;51.214;9.202;2024-01-10T07:19:07;99903.88;;;-11.11;89.36
30618;BME280;17384;51.214;9.202;2024-01-10T07:21:32;99907.75;;;-11.21;89.66
30618;BME280;17384;51.214;9.202;2024-01-10T07:23:58;99910.94;;;-11.13;89.97
30618;BME280;17384;51.214;9.202;2024-01-10T07:26:24;99918.72;;;-11.12;90.06
30618;BME280;17384;51.214;9.202;2024-01-10T07:28:50;99911.63;;;-11.08;90.24
30618;BME280;17384;51.214;9.202;2024-01-10T07:31:15;99915.19;;;-11.11;90.22
30618;BME280;17384;51.214;9.202;2024-01-10T07:33:41;99905.59;;;-11.10;90.38
30618;BME280;17384;51.214;9.202;2024-01-10T07:36:06;99925.47;;;-11.30;90.54
30618;BME280;17384;51.214;9.202;2024-01-10T07:38:32;99910.81;;;-11.35;90.82
30618;BME280;17384;51.214;9.202;2024-01-10T07:40:58;99919.53;;;-11.35;91.66
30618;BME280;17384;51.214;9.202;2024-01-10T07:43:24;99923.84;;;-11.34;91.92
30618;BME280;17384;51.214;9.202;2024-01-10T07:45:50;99931.47;;;-11.26;92.43
30618;BME280;17384;51.214;9.202;2024-01-10T07:48:16;99932.31;;;-11.25;92.86
30618;BME280;17384;51.214;9.202;2024-01-10T07:50:41;99931.22;;;-11.20;93.09
30618;BME280;17384;51.214;9.202;2024-01-10T07:53:07;99931.78;;;-11.10;93.05
30618;BME280;17384;51.214;9.202;2024-01-10T07:55:32;99919.88;;;-10.94;93.27
30618;BME280;17384;51.214;9.202;2024-01-10T07:57:58;99948.28;;;-10.58;93.50
30618;BME280;17384;51.214;9.202;2024-01-10T08:00:24;99946.81;;;-10.19;93.30
30618;BME280;17384;51.214;9.202;2024-01-10T08:02:49;99937.13;;;-9.73;93.50
30618;BME280;17384;51.214;9.202;2024-01-10T08:05:15;99949.50;;;-9.33;92.75
30618;BME280;17384;51.214;9.202;2024-01-10T08:07:41;99948.28;;;-8.84;92.20
30618;BME280;17384;51.214;9.202;2024-01-10T08:10:06;99942.19;;;-8.45;90.97
30618;BME280;17384;51.214;9.202;2024-01-10T08:12:33;99945.47;;;-8.03;88.86
30618;BME280;17384;51.214;9.202;2024-01-10T08:14:58;99939.00;;;-7.96;86.36
30618;BME280;17384;51.214;9.202;2024-01-10T08:17:24;99932.31;;;-7.48;84.82
30618;BME280;17384;51.214;9.202;2024-01-10T08:19:49;99925.84;;;-7.24;82.97
30618;BME280;17384;51.214;9.202;2024-01-10T08:22:15;99937.34;;;-6.90;81.79
30618;BME280;17384;51.214;9.202;2024-01-10T08:24:40;99931.25;;;-6.75;80.17
30618;BME280;17384;51.214;9.202;2024-01-10T08:27:06;99940.44;;;-6.49;79.08
30618;BME280;17384;51.214;9.202;2024-01-10T08:29:31;99940.91;;;-6.08;77.90
30618;BME280;17384;51.214;9.202;2024-01-10T08:31:57;99939.59;;;-5.85;75.74
30618;BME280;17384;51.214;9.202;2024-01-10T08:34:23;99927.72;;;-5.47;74.76
30618;BME280;17384;51.214;9.202;2024-01-10T08:36:48;99932.28;;;-5.19;73.55
30618;BME280;17384;51.214;9.202;2024-01-10T08:39:16;99925.19;;;-5.18;72.68
30618;BME280;17384;51.214;9.202;2024-01-10T08:41:42;99914.94;;;-5.38;72.53
30618;BME280;17384;51.214;9.202;2024-01-10T08:44:09;99922.47;;;-5.17;71.91
30618;BME280;17384;51.214;9.202;2024-01-10T08:46:34;99917.16;;;-5.47;72.12
30618;BME280;17384;51.214;9.202;2024-01-10T08:49:00;99921.75;;;-5.04;71.26
30618;BME280;17384;51.214;9.202;2024-01-10T08:51:25;99934.13;;;-4.75;70.59
30618;BME280;17384;51.214;9.202;2024-01-10T08:53:52;99940.78;;;-4.68;70.09
30618;BME280;17384;51.214;9.202;2024-01-10T08:56:18;99939.28;;;-4.01;69.92
30618;BME280;17384;51.214;9.202;2024-01-10T08:58:44;99935.97;;;-3.90;68.83
30618;BME280;17384;51.214;9.202;2024-01-10T09:01:10;99945.06;;;-3.53;68.18
30618;BME280;17384;51.214;9.202;2024-01-10T09:03:36;99942.38;;;-3.66;67.08
30618;BME280;17384;51.214;9.202;2024-01-10T09:06:02;99949.75;;;-3.57;67.47
30618;BME280;17384;51.214;9.202;2024-01-10T09:08:29;99947.31;;;-3.33;66.99
30618;BME280;17384;51.214;9.202;2024-01-10T09:10:54;99955.56;;;-3.11;66.26
30618;BME280;17384;51.214;9.202;2024-01-10T09:13:19;99940.47;;;-3.10;66.59
30618;BME280;17384;51.214;9.202;2024-01-10T09:15:45;99949.47;;;-2.73;65.61
30618;BME280;17384;51.214;9.202;2024-01-10T09:18:10;99947.59;;;-3.11;65.08
30618;BME280;17384;51.214;9.202;2024-01-10T09:20:36;99950.16;;;-2.57;65.24
30618;BME280;17384;51.214;9.202;2024-01-10T09:23:01;99959.81;;;-1.80;64.50
30618;BME280;17384;51.214;9.202;2024-01-10T09:25:27;99953.59;;;-1.31;63.26
30618;BME280;17384;51.214;9.202;2024-01-10T09:27:53;99959.97;;;-1.21;62.04
30618;BME280;17384;51.214;9.202;2024-01-10T09:30:19;99951.97;;;-1.21;61.37
30618;BME280;17384;51.214;9.202;2024-01-10T09:32:45;99965.59;;;-0.43;61.50
30618;BME280;17384;51.214;9.202;2024-01-10T09:35:10;99960.00;;;-0.62;59.79
30618;BME280;17384;51.214;9.202;2024-01-10T09:37:36;99969.78;;;-0.16;59.36
30618;BME280;17384;51.214;9.202;2024-01-10T09:40:01;99956.19;;;-0.71;58.65
30618;BME280;17384;51.214;9.202;2024-01-10T09:42:29;99964.81;;;0.02;58.83
30618;BME280;17384;51.214;9.202;2024-01-10T09:44:56;99968.19;;;-0.30;58.32
30618;BME280;17384;51.214;9.202;2024-01-10T09:47:21;99980.81;;;0.02;58.41
30618;BME280;17384;51.214;9.202;2024-01-10T09:49:50;99975.25;;;0.38;57.91
30618;BME280;17384;51.214;9.202;2024-01-10T09:52:24;99971.22;;;0.77;56.92
30618;BME280;17384;51.214;9.202;2024-01-10T09:54:54;99978.69;;;0.94;56.00
30618;BME280;17384;51.214;9.202;2024-01-10T09:57:20;99970.91;;;1.02;55.65
30618;BME280;17384;51.214;9.202;2024-01-10T09:59:47;99987.41;;;1.40;55.02
30618;BME280;17384;51.214;9.202;2024-01-10T10:02:13;99985.00;;;1.05;55.42
30618;BME280;17384;51.214;9.202;2024-01-10T10:04:38;99984.69;;;1.19;54.67
30618;BME280;17384;51.214;9.202;2024-01-10T10:07:07;99978.72;;;0.83;54.64
30618;BME280;17384;51.214;9.202;2024-01-10T10:09:32;99972.50;;;1.58;54.61
30618;BME280;17384;51.214;9.202;2024-01-10T10:11:58;99989.19;;;1.92;53.45
30618;BME280;17384;51.214;9.202;2024-01-10T10:14:23;99986.66;;;2.42;53.09
30618;BME280;17384;51.214;9.202;2024-01-10T10:16:51;99987.88;;;2.07;52.23
30618;BME280;17384;51.214;9.202;2024-01-10T10:19:23;99958.81;;;1.19;53.76
30618;BME280;17384;51.214;9.202;2024-01-10T10:21:48;99980.38;;;2.01;54.40
30618;BME280;17384;51.214;9.202;2024-01-10T10:24:13;99981.72;;;2.47;51.98
30618;BME280;17384;51.214;9.202;2024-01-10T10:26:39;99958.00;;;2.82;52.49
30618;BME280;17384;51.214;9.202;2024-01-10T10:29:06;99972.59;;;2.59;51.47
30618;BME280;17384;51.214;9.202;2024-01-10T10:31:31;99977.53;;;3.42;51.44
30618;BME280;17384;51.214;9.202;2024-01-10T10:33:57;99982.34;;;3.67;50.03
30618;BME280;17384;51.214;9.202;2024-01-10T10:36:24;99982.19;;;3.30;50.09
30618;BME280;17384;51.214;9.202;2024-01-10T10:38:49;99978.25;;;3.54;49.97
30618;BME280;17384;51.214;9.202;2024-01-10T10:41:15;99975.13;;;3.78;50.09
30618;BME280;17384;51.214;9.202;2024-01-10T10:43:40;99976.13;;;3.38;49.14
30618;BME280;17384;51.214;9.202;2024-01-10T10:46:07;99982.50;;;3.47;50.21
30618;BME280;17384;51.214;9.202;2024-01-10T10:48:33;99973.22;;;4.07;47.80
30618;BME280;17384;51.214;9.202;2024-01-10T10:51:15;99972.09;;;4.47;47.26
30618;BME280;17384;51.214;9.202;2024-01-10T10:53:43;99967.72;;;3.99;48.43
30618;BME280;17384;51.214;9.202;2024-01-10T10:56:10;99974.91;;;4.82;47.77
30618;BME280;17384;51.214;9.202;2024-01-10T10:58:41;99970.50;;;4.17;47.64
30618;BME280;17384;51.214;9.202;2024-01-10T11:01:07;99969.53;;;4.82;45.80
30618;BME280;17384;51.214;9.202;2024-01-10T11:03:36;99969.94;;;5.05;45.04
30618;BME280;17384;51.214;9.202;2024-01-10T11:06:02;99969.19;;;5.13;45.90
30618;BME280;17384;51.214;9.202;2024-01-10T11:08:29;99964.72;;;5.57;45.38
30618;BME280;17384;51.214;9.202;2024-01-10T11:10:55;99959.13;;;5.15;46.13
30618;BME280;17384;51.214;9.202;2024-01-10T11:25:46;99940.56;;;4.49;46.64
30618;BME280;17384;51.214;9.202;2024-01-10T11:28:12;99932.31;;;4.78;46.03
30618;BME280;17384;51.214;9.202;2024-01-10T11:30:47;99938.50;;;5.05;45.95
30618;BME280;17384;51.214;9.202;2024-01-10T11:38:29;99920.50;;;3.40;47.77
30618;BME280;17384;51.214;9.202;2024-01-10T11:40:54;99925.53;;;3.82;47.99
30618;BME280;17384;51.214;9.202;2024-01-10T11:43:21;99918.78;;;3.78;47.31
30618;BME280;17384;51.214;9.202;2024-01-10T11:45:54;99920.34;;;3.61;47.79
30618;BME280;17384;51.214;9.202;2024-01-10T11:48:26;99913.59;;;3.47;47.77
30618;BME280;17384;51.214;9.202;2024-01-10T11:50:52;99911.03;;;3.55;46.88
30618;BME280;17384;51.214;9.202;2024-01-10T11:56:11;99913.56;;;4.40;46.13
30618;BME280;17384;51.214;9.202;2024-01-10T12:01:21;99915.34;;;4.59;44.45
30618;BME280;17384;51.214;9.202;2024-01-10T12:03:47;99921.84;;;5.37;44.47
30618;BME280;17384;51.214;9.202;2024-01-10T12:06:13;99920.09;;;5.10;44.42
30618;BME280;17384;51.214;9.202;2024-01-10T12:08:39;99922.19;;;5.60;44.05
30618;BME280;17384;51.214;9.202;2024-01-10T12:11:05;99900.81;;;5.15;44.42
30618;BME280;17384;51.214;9.202;2024-01-10T12:13:30;99906.34;;;5.57;44.59
30618;BME280;17384;51.214;9.202;2024-01-10T12:15:57;99917.03;;;5.67;44.03
30618;BME280;17384;51.214;9.202;2024-01-10T12:18:23;99905.44;;;5.66;43.92
30618;BME280;17384;51.214;9.202;2024-01-10T12:20:48;99902.09;;;5.47;44.92
30618;BME280;17384;51.214;9.202;2024-01-10T12:23:13;99893.66;;;4.88;45.96
30618;BME280;17384;51.214;9.202;2024-01-10T12:25:39;99898.69;;;5.27;45.01
30618;BME280;17384;51.214;9.202;2024-01-10T12:28:04;99906.28;;;5.49;45.11
30618;BME280;17384;51.214;9.202;2024-01-10T12:30:30;99899.31;;;5.38;45.31
30618;BME280;17384;51.214;9.202;2024-01-10T12:32:55;99898.06;;;5.76;45.43
30618;BME280;17384;51.214;9.202;2024-01-10T12:35:23;99881.03;;;5.42;44.34
30618;BME280;17384;51.214;9.202;2024-01-10T12:37:55;99881.44;;;5.12;44.51
30618;BME280;17384;51.214;9.202;2024-01-10T12:40:21;99887.25;;;5.42;44.34
30618;BME280;17384;51.214;9.202;2024-01-10T12:42:46;99889.75;;;5.88;44.32
30618;BME280;17384;51.214;9.202;2024-01-10T12:45:24;99890.47;;;6.66;42.99
30618;BME280;17384;51.214;9.202;2024-01-10T12:47:49;99899.38;;;7.49;41.54
30618;BME280;17384;51.214;9.202;2024-01-10T12:50:15;99898.22;;;8.31;41.06
30618;BME280;17384;51.214;9.202;2024-01-10T12:52:40;99897.03;;;7.62;40.77
30618;BME280;17384;51.214;9.202;2024-01-10T12:55:07;99895.13;;;7.79;40.95
30618;BME280;17384;51.214;9.202;2024-01-10T12:57:33;99895.22;;;8.34;40.48
30618;BME280;17384;51.214;9.202;2024-01-10T12:59:58;99900.72;;;7.77;40.70
30618;BME280;17384;51.214;9.202;2024-01-10T13:02:23;99883.81;;;7.92;41.39
30618;BME280;17384;51.214;9.202;2024-01-10T13:04:48;99894.91;;;9.22;40.07
30618;BME280;17384;51.214;9.202;2024-01-10T13:07:14;99902.19;;;9.22;38.80
30618;BME280;17384;51.214;9.202;2024-01-10T13:09:39;99883.47;;;6.97;41.12